Time;durP1;ratioP1;P1;durP2;ratioP2;P2;SDS_P1;SDS_P2;PMS_P1;PMS_P2;Temp;Humidity;BMP_temperature;BMP_pressure;BME280_temperature;BME280_humidity;BME280_pressure;Samples;Min_cycle;Max_cycle;Signal;HPM_P1;HPM_P2
2021/01/11 00:02:01;;;;;;;69.00;37.78;;;;;;;1.39;74.74;100958.50;2097210;83;32917;-71
2021/01/11 00:05:04;;;;;;;78.15;40.23;;;;;;;1.27;74.70;100958.06;2119184;82;29574;-71
2021/01/11 00:08:06;;;;;;;83.97;44.13;;;;;;;1.16;74.73;100960.73;2116857;83;27649;-71
2021/01/11 00:11:08;;;;;;;72.45;36.95;;;;;;;1.02;74.71;100954.12;2044102;82;29583;-72
2021/01/11 00:14:10;;;;;;;68.55;36.70;;;;;;;0.91;74.57;100950.16;2107879;82;31841;-72
2021/01/11 00:17:13;;;;;;;74.53;41.40;;;;;;;0.80;74.63;100959.37;2076671;83;32079;-71
2021/01/11 00:20:15;;;;;;;68.02;34.60;;;;;;;0.69;74.60;100958.04;2067115;82;28659;-72
2021/01/11 00:23:18;;;;;;;71.10;36.83;;;;;;;0.57;74.55;100954.96;2109772;84;27810;-70
2021/01/11 00:26:20;;;;;;;68.33;35.73;;;;;;;0.46;74.57;100951.40;2072313;84;29054;-72
2021/01/11 00:29:23;;;;;;;68.12;35.68;;;;;;;0.37;74.64;100954.89;2058676;84;30969;-70
2021/01/11 00:32:25;;;;;;;71.72;34.92;;;;;;;0.27;74.60;100959.25;2052115;84;33122;-69
2021/01/11 00:35:27;;;;;;;63.33;33.65;;;;;;;0.18;74.69;100960.55;2106882;83;28936;-70
2021/01/11 00:38:30;;;;;;;73.45;36.53;;;;;;;0.09;74.73;100963.13;2103577;84;27672;-69
2021/01/11 00:41:32;;;;;;;66.35;34.43;;;;;;;0.02;74.86;100964.86;2097903;83;29851;-69
2021/01/11 00:44:34;;;;;;;61.63;32.78;;;;;;;-0.06;74.82;100958.23;2110529;82;31145;-71
2021/01/11 00:47:41;;;;;;;62.83;31.62;;;;;;;-0.11;75.01;100957.77;2064764;84;34285;-71
2021/01/11 00:50:43;;;;;;;62.33;31.17;;;;;;;-0.16;74.94;100966.98;2076621;83;28682;-69
2021/01/11 00:53:45;;;;;;;56.65;28.95;;;;;;;-0.21;75.07;100966.06;2071169;84;27816;-70
2021/01/11 00:56:48;;;;;;;66.00;31.40;;;;;;;-0.26;74.97;100971.30;2109115;83;28067;-70
2021/01/11 00:59:53;;;;;;;60.03;30.27;;;;;;;-0.32;75.04;100975.20;2088648;83;31062;-69
2021/01/11 01:02:55;;;;;;;61.65;32.45;;;;;;;-0.39;75.15;100973.42;2082793;83;33511;-68
2021/01/11 01:05:59;;;;;;;64.95;31.85;;;;;;;-0.42;75.08;100980.88;2124320;83;28861;-71
2021/01/11 01:09:01;;;;;;;68.45;33.58;;;;;;;-0.48;75.16;100983.45;2066254;84;27768;-71
2021/01/11 01:12:04;;;;;;;71.70;34.70;;;;;;;-0.52;75.25;100984.30;2079357;83;29571;-71
2021/01/11 01:15:08;;;;;;;85.00;40.85;;;;;;;-0.55;75.43;100992.16;2089269;83;32696;-69
2021/01/11 01:18:10;;;;;;;78.17;39.30;;;;;;;-0.54;75.75;100998.77;2066854;83;33102;-68
2021/01/11 01:21:16;;;;;;;74.50;36.23;;;;;;;-0.53;75.90;100992.64;2049905;83;29591;-69
2021/01/11 01:24:18;;;;;;;76.65;38.30;;;;;;;-0.50;76.05;100990.04;2114217;83;27579;-70
2021/01/11 01:27:20;;;;;;;73.35;38.02;;;;;;;-0.43;76.25;100994.02;2108665;84;28637;-70
2021/01/11 01:30:23;;;;;;;74.37;35.75;;;;;;;-0.38;76.30;100984.41;2055685;83;32162;-70
2021/01/11 01:33:25;;;;;;;79.65;38.55;;;;;;;-0.29;76.53;100986.22;2082294;84;33066;-70
2021/01/11 01:36:27;;;;;;;83.33;41.20;;;;;;;-0.21;76.56;100986.70;2083808;84;28856;-69
2021/01/11 01:39:29;;;;;;;77.27;40.25;;;;;;;-0.09;76.72;100987.64;2120068;82;27848;-69
2021/01/11 01:42:31;;;;;;;83.05;40.88;;;;;;;0.02;76.90;100983.75;2078902;83;30200;-71
2021/01/11 01:45:33;;;;;;;83.50;40.50;;;;;;;0.12;76.97;100976.31;2102278;83;31168;-70
2021/01/11 01:48:36;;;;;;;80.67;39.92;;;;;;;0.21;77.03;100982.96;2092210;83;32902;-68
2021/01/11 01:51:39;;;;;;;83.05;40.58;;;;;;;0.28;76.95;100979.91;2079215;83;29685;-67
2021/01/11 01:54:41;;;;;;;82.57;38.80;;;;;;;0.33;76.81;100974.65;2093041;84;27718;-70
2021/01/11 01:57:44;;;;;;;86.45;41.58;;;;;;;0.35;76.63;100971.13;2047346;84;28837;-70
2021/01/11 02:00:46;;;;;;;81.55;40.12;;;;;;;0.38;76.52;100970.28;2118189;83;31147;-70
2021/01/11 02:03:48;;;;;;;82.55;39.90;;;;;;;0.39;76.45;100978.18;2065190;84;32898;-68
2021/01/11 02:06:56;;;;;;;85.35;42.50;;;;;;;0.37;76.31;100972.02;2091054;83;28857;-70
2021/01/11 02:10:37;;;;;;;82.85;41.35;;;;;;;0.35;76.17;100973.77;2109704;83;27618;-68
2021/01/11 02:13:50;;;;;;;71.62;37.78;;;;;;;0.29;76.08;100972.00;2114077;83;28831;-71
2021/01/11 02:17:21;;;;;;;79.10;40.83;;;;;;;0.29;76.06;100967.17;2210519;79;27801;-71
2021/01/11 02:20:50;;;;;;;78.87;38.42;;;;;;;0.21;75.97;100967.57;2174971;79;27741;-71
2021/01/11 02:24:26;;;;;;;79.22;39.50;;;;;;;0.14;75.76;100962.72;2191524;79;28856;-70
2021/01/11 02:27:58;;;;;;;80.28;37.95;;;;;;;0.05;75.72;100962.23;2177545;79;31594;-69
2021/01/11 02:31:01;;;;;;;75.28;38.60;;;;;;;-0.04;75.59;100953.00;2164698;79;33124;-70
2021/01/11 02:34:04;;;;;;;76.87;37.60;;;;;;;-0.13;75.62;100955.15;2082902;84;28401;-70
2021/01/11 02:37:06;;;;;;;87.53;37.88;;;;;;;-0.20;75.62;100958.19;2150265;80;27656;-70
2021/01/11 02:40:10;;;;;;;78.33;37.60;;;;;;;-0.25;75.64;100955.95;2193357;80;28925;-69
2021/01/11 02:43:13;;;;;;;77.92;36.00;;;;;;;-0.33;75.49;100951.09;2134332;81;30787;-67
2021/01/11 02:46:15;;;;;;;82.95;38.78;;;;;;;-0.40;75.51;100946.66;2161051;81;32507;-68
2021/01/11 02:49:30;;;;;;;77.92;38.80;;;;;;;-0.47;75.43;100945.29;2160839;80;29815;-70
2021/01/11 02:52:48;;;;;;;80.42;38.53;;;;;;;-0.53;75.49;100943.95;2160547;80;27756;-68
2021/01/11 02:56:03;;;;;;;83.37;40.63;;;;;;;-0.57;75.46;100948.75;2158423;80;28583;-70
2021/01/11 02:59:33;;;;;;;85.90;40.30;;;;;;;-0.65;75.35;100935.54;2184474;81;31150;-70
2021/01/11 03:02:42;;;;;;;84.22;41.58;;;;;;;-0.72;75.37;100935.03;2158662;80;33037;-70
2021/01/11 03:05:45;;;;;;;83.25;40.20;;;;;;;-0.77;75.51;100940.72;2146207;81;28656;-69
2021/01/11 03:08:47;;;;;;;83.15;39.55;;;;;;;-0.82;75.45;100935.84;2179555;80;27661;-71
2021/01/11 03:11:50;;;;;;;80.77;38.13;;;;;;;-0.87;75.37;100929.66;2164421;80;29010;-70
2021/01/11 03:14:52;;;;;;;85.07;41.20;;;;;;;-0.92;75.49;100926.59;2124872;81;31586;-71
2021/01/11 03:17:54;;;;;;;80.42;40.20;;;;;;;-0.95;75.52;100924.34;2059456;83;34041;-71
2021/01/11 03:20:56;;;;;;;77.70;38.70;;;;;;;-0.98;75.51;100921.27;2063683;82;30108;-73
2021/01/11 03:23:58;;;;;;;81.65;40.45;;;;;;;-0.99;75.51;100913.38;2139077;80;27699;-70
2021/01/11 03:27:00;;;;;;;84.60;39.55;;;;;;;-1.04;75.38;100913.32;2148923;81;28804;-71
2021/01/11 03:30:06;;;;;;;82.90;39.25;;;;;;;-1.08;75.41;100915.50;2089835;82;30975;-70
2021/01/11 03:33:08;;;;;;;82.20;41.85;;;;;;;-1.12;75.46;100911.94;2101289;81;33327;-71
2021/01/11 03:36:10;;;;;;;80.50;38.53;;;;;;;-1.13;75.39;100912.81;2153830;81;28670;-71
2021/01/11 03:39:13;;;;;;;77.92;37.95;;;;;;;-1.18;75.22;100917.17;2128337;81;28002;-70
2021/01/11 03:42:15;;;;;;;81.17;37.13;;;;;;;-1.26;75.18;100907.91;2141620;81;28810;-71
2021/01/11 03:45:17;;;;;;;76.02;36.58;;;;;;;-1.28;75.12;100904.38;2113846;81;30966;-71
2021/01/11 03:48:20;;;;;;;85.80;38.48;;;;;;;-1.31;75.28;100904.76;2143451;82;33074;-72
2021/01/11 03:51:22;;;;;;;77.67;36.38;;;;;;;-1.34;75.30;100898.19;2177838;80;28872;-69
2021/01/11 03:54:25;;;;;;;74.45;37.15;;;;;;;-1.36;75.25;100892.89;2179072;81;27762;-70
2021/01/11 03:57:30;;;;;;;77.65;37.05;;;;;;;-1.39;75.27;100899.02;2151917;81;29269;-70
2021/01/11 04:00:32;;;;;;;77.12;36.42;;;;;;;-1.42;75.14;100896.36;2152712;80;31149;-70
2021/01/11 04:03:34;;;;;;;73.12;35.85;;;;;;;-1.43;75.12;100901.61;2169305;80;33123;-71
2021/01/11 04:06:36;;;;;;;78.72;36.38;;;;;;;-1.46;75.18;100891.06;2138014;81;28869;-69
2021/01/11 04:09:39;;;;;;;82.62;38.28;;;;;;;-1.49;75.01;100888.41;2136222;81;27701;-70
2021/01/11 04:12:41;;;;;;;72.40;35.03;;;;;;;-1.56;75.06;100884.84;2118511;81;28827;-68
2021/01/11 04:15:43;;;;;;;79.90;37.15;;;;;;;-1.61;75.14;100882.59;2124363;81;31940;-70
2021/01/11 04:18:49;;;;;;;81.42;38.90;;;;;;;-1.64;75.22;100880.83;2147992;81;33333;-70
2021/01/11 04:21:51;;;;;;;84.90;40.80;;;;;;;-1.65;75.20;100876.88;2167619;81;28899;-71
2021/01/11 04:24:53;;;;;;;83.25;39.58;;;;;;;-1.70;75.16;100876.81;2103620;82;27663;-71
2021/01/11 04:28:01;;;;;;;76.30;36.03;;;;;;;-1.73;75.25;100876.77;2134455;82;29104;-72
2021/01/11 04:31:04;;;;;;;84.65;37.88;;;;;;;-1.76;75.18;100882.02;2101202;83;31242;-72
2021/01/11 04:34:07;;;;;;;78.10;38.48;;;;;;;-1.81;75.04;100880.63;2137700;81;34081;-71
2021/01/11 04:37:11;;;;;;;70.95;35.35;;;;;;;-1.81;75.20;100877.14;2164743;81;28867;-71
2021/01/11 04:40:13;;;;;;;81.67;38.80;;;;;;;-1.83;75.15;100870.58;2140008;83;27789;-69
2021/01/11 04:43:18;;;;;;;81.10;37.50;;;;;;;-1.86;75.12;100869.22;2157609;81;28908;-69
2021/01/11 04:46:20;;;;;;;74.22;35.20;;;;;;;-1.88;75.09;100870.50;2131567;81;31336;-67
2021/01/11 04:49:24;;;;;;;75.95;35.45;;;;;;;-1.88;75.13;100870.95;2154781;81;32893;-70
2021/01/11 04:52:26;;;;;;;86.60;37.48;;;;;;;-1.91;75.07;100866.55;2112016;81;28813;-69
2021/01/11 04:55:30;;;;;;;78.37;37.65;;;;;;;-1.93;75.02;100864.34;2129784;81;27746;-69
2021/01/11 04:58:41;;;;;;;73.55;36.98;;;;;;;-1.96;75.16;100865.61;2155167;81;29455;-70
2021/01/11 05:01:56;;;;;;;80.90;39.70;;;;;;;-1.92;75.18;100865.20;2251378;77;37287;-71
2021/01/11 05:04:58;;;;;;;82.17;36.58;;;;;;;-1.98;74.99;100869.97;2144375;81;27807;-70
2021/01/11 05:08:00;;;;;;;85.77;37.58;;;;;;;-2.00;75.09;100857.25;2163087;80;28877;-70
2021/01/11 05:11:02;;;;;;;96.02;42.67;;;;;;;-2.02;75.11;100861.18;2138491;80;32189;-71
2021/01/11 05:14:04;;;;;;;84.05;38.30;;;;;;;-2.04;74.95;100862.91;2145962;81;33957;-71
2021/01/11 05:17:08;;;;;;;81.37;41.70;;;;;;;-2.08;75.00;100862.86;2171259;81;29517;-71
2021/01/11 05:20:12;;;;;;;87.42;38.85;;;;;;;-2.09;74.93;100865.03;2099550;81;27688;-72
2021/01/11 05:23:16;;;;;;;84.35;39.03;;;;;;;-2.10;74.92;100860.64;2124897;81;28907;-71
2021/01/11 05:26:19;;;;;;;89.15;38.42;;;;;;;-2.14;74.99;100859.70;2144947;80;31151;-69
2021/01/11 05:29:20;;;;;;;88.87;39.75;;;;;;;-2.15;74.96;100860.60;2092395;80;33193;-68
2021/01/11 05:32:24;;;;;;;86.55;38.48;;;;;;;-2.17;74.95;100851.83;2117321;80;28848;-71
2021/01/11 05:35:27;;;;;;;91.37;43.15;;;;;;;-2.17;75.01;100853.13;2156422;81;27743;-71
2021/01/11 05:38:39;;;;;;;79.25;39.10;;;;;;;-2.19;74.88;100858.34;2117922;81;28856;-72
2021/01/11 05:41:42;;;;;;;97.27;41.18;;;;;;;-2.20;74.90;100855.72;2161601;80;31146;-71
2021/01/11 05:44:45;;;;;;;83.80;38.88;;;;;;;-2.22;74.83;100860.06;2125255;80;33101;-71
2021/01/11 05:51:27;;;;;;;83.70;39.23;;;;;;;-2.20;74.89;100857.03;2295183;77;37268;-70
2021/01/11 05:54:29;;;;;;;85.57;38.42;;;;;;;-2.27;74.81;100853.45;2210891;80;33000;-71
2021/01/11 05:57:32;;;;;;;88.10;41.02;;;;;;;-2.33;74.87;100846.39;2215354;78;29249;-71
2021/01/11 06:00:36;;;;;;;89.32;39.08;;;;;;;-2.30;74.91;100855.59;2214861;77;31256;-72
2021/01/11 06:03:39;;;;;;;92.95;41.90;;;;;;;-2.30;74.91;100856.91;2182543;78;33874;-71
2021/01/11 06:06:41;;;;;;;96.45;41.65;;;;;;;-2.31;74.83;100860.39;2248249;78;28539;-71
2021/01/11 06:09:44;;;;;;;88.65;40.55;;;;;;;-2.33;74.86;100855.58;2199578;78;27815;-71
2021/01/11 06:12:47;;;;;;;91.80;40.15;;;;;;;-2.33;74.88;100856.89;2204830;80;27786;-71
2021/01/11 06:15:50;;;;;;;96.45;41.53;;;;;;;-2.33;74.84;100855.99;2196017;78;31141;-71
2021/01/11 06:18:53;;;;;;;82.90;39.30;;;;;;;-2.34;74.81;100858.16;2225938;78;33570;-71
2021/01/11 06:21:56;;;;;;;98.85;45.15;;;;;;;-2.34;74.84;100862.09;2147856;81;29593;-70
2021/01/11 06:24:59;;;;;;;106.65;46.02;;;;;;;-2.35;75.09;100860.34;2161835;80;27808;-71
2021/01/11 06:28:09;;;;;;;101.47;42.75;;;;;;;-2.35;75.20;100874.77;2124754;80;28589;-72
2021/01/11 06:31:13;;;;;;;96.60;43.20;;;;;;;-2.36;75.15;100870.38;2125788;81;31165;-71
2021/01/11 06:34:35;;;;;;;106.45;44.18;;;;;;;-2.36;75.07;100869.06;2181920;80;33102;-70
2021/01/11 06:37:38;;;;;;;101.55;43.83;;;;;;;-2.36;75.01;100870.38;2141777;81;28738;-71
2021/01/11 06:40:40;;;;;;;107.03;46.33;;;;;;;-2.35;75.04;100872.14;2163034;80;27818;-71
2021/01/11 06:43:51;;;;;;;105.95;46.25;;;;;;;-2.36;75.25;100869.97;2161754;80;28819;-71
2021/01/11 06:46:55;;;;;;;103.53;45.35;;;;;;;-2.36;75.22;100871.28;2114841;81;30857;-71
2021/01/11 06:50:09;;;;;;;107.32;45.67;;;;;;;-2.34;75.33;100869.97;2181149;80;33124;-71
2021/01/11 06:53:12;;;;;;;105.52;44.00;;;;;;;-2.35;75.32;100862.96;2024726;86;31178;-71
2021/01/11 06:56:16;;;;;;;105.83;45.85;;;;;;;-2.32;75.43;100866.94;2058845;85;27716;-71
2021/01/11 06:59:19;;;;;;;108.92;45.15;;;;;;;-2.32;75.47;100867.84;2066262;85;28823;-72
2021/01/11 07:02:25;;;;;;;96.97;42.08;;;;;;;-2.30;75.46;100869.16;2083196;85;31346;-72
2021/01/11 07:05:39;;;;;;;103.07;45.30;;;;;;;-2.23;75.44;100874.05;2321203;75;37097;-71
2021/01/11 07:08:44;;;;;;;141.03;62.75;;;;;;;-2.24;75.32;100880.16;2209046;78;27782;-72
2021/01/11 07:11:49;;;;;;;162.65;76.77;;;;;;;-2.23;75.38;100886.72;2192295;80;28798;-72
2021/01/11 07:15:05;;;;;;;145.32;72.97;;;;;;;-2.21;75.54;100889.39;2185895;80;32104;-72
2021/01/11 07:18:07;;;;;;;153.87;69.45;;;;;;;-2.16;75.47;100890.33;2212661;78;33117;-69
2021/01/11 07:21:15;;;;;;;148.65;68.45;;;;;;;-2.13;75.49;100892.97;2149889;81;28289;-71
2021/01/11 07:24:18;;;;;;;132.32;62.65;;;;;;;-2.10;75.48;100890.38;2185981;78;27714;-71
2021/01/11 07:27:20;;;;;;;134.82;62.53;;;;;;;-2.08;75.47;100891.73;2217973;78;29543;-72
2021/01/11 07:30:25;;;;;;;148.38;69.40;;;;;;;-2.05;75.48;100891.75;2238419;78;31149;-70
2021/01/11 07:33:27;;;;;;;225.72;95.22;;;;;;;-2.03;75.51;100888.71;2228061;77;33012;-70
2021/01/11 07:36:51;;;;;;;265.62;110.00;;;;;;;-1.99;75.53;100895.35;2170949;80;30416;-70
2021/01/11 07:39:54;;;;;;;179.65;76.90;;;;;;;-1.93;75.60;100887.08;2185306;79;27630;-70
2021/01/11 07:42:57;;;;;;;141.40;63.05;;;;;;;-1.86;75.72;100888.47;2174665;79;29788;-71
2021/01/11 07:46:04;;;;;;;121.20;52.93;;;;;;;-1.76;75.72;100888.59;2203238;79;31233;-70
2021/01/11 07:49:15;;;;;;;123.70;57.00;;;;;;;-1.67;75.78;100884.73;2173399;80;33331;-71
2021/01/11 07:52:26;;;;;;;156.52;67.62;;;;;;;-1.59;75.78;100874.30;2176822;79;31202;-71
2021/01/11 07:55:33;;;;;;;155.20;62.45;;;;;;;-1.50;75.84;100884.02;2200215;79;27975;-70
2021/01/11 07:58:35;;;;;;;131.05;56.42;;;;;;;-1.38;75.93;100890.27;2253811;78;32538;-69
2021/01/11 08:01:40;;;;;;;127.35;57.33;;;;;;;-1.26;75.93;100887.29;2198751;78;31857;-69
2021/01/11 08:04:43;;;;;;;127.85;55.80;;;;;;;-1.14;75.91;100895.72;2143332;80;33364;-72
2021/01/11 08:07:52;;;;;;;124.33;56.00;;;;;;;-1.02;75.92;100890.55;2232481;78;29316;-72
2021/01/11 08:10:58;;;;;;;120.55;55.20;;;;;;;-0.92;75.88;100895.03;2228933;78;27763;-70
2021/01/11 08:14:09;;;;;;;129.20;56.85;;;;;;;-0.83;75.84;100889.37;2129387;79;29534;-71
2021/01/11 08:17:22;;;;;;;126.72;56.00;;;;;;;-0.81;75.80;100892.45;2165066;78;32028;-71
2021/01/11 08:20:25;;;;;;;112.60;54.40;;;;;;;-0.76;75.81;100899.08;2263724;78;34860;-71
2021/01/11 08:23:27;;;;;;;133.72;59.53;;;;;;;-0.71;75.86;100905.67;2187055;79;27839;-71
2021/01/11 08:26:46;;;;;;;155.12;65.80;;;;;;;-0.66;75.97;100904.83;2151238;79;27655;-71
2021/01/11 08:29:49;;;;;;;108.87;53.52;;;;;;;-0.65;75.82;100901.75;2215574;78;28802;-69
2021/01/11 08:32:53;;;;;;;111.25;52.05;;;;;;;-0.59;75.90;100908.83;2148048;80;32311;-71
2021/01/11 08:36:20;;;;;;;113.60;50.67;;;;;;;-0.55;76.03;100912.80;2202082;79;33240;-71
2021/01/11 08:39:24;;;;;;;110.80;49.05;;;;;;;-0.48;75.96;100910.63;2174270;80;30156;-71
2021/01/11 08:42:28;;;;;;;113.08;48.75;;;;;;;-0.42;76.05;100910.23;2124772;79;27723;-72
2021/01/11 08:45:40;;;;;;;103.30;48.30;;;;;;;-0.38;76.03;100899.72;2185960;78;28807;-72
2021/01/11 08:48:43;;;;;;;107.03;48.75;;;;;;;-0.31;76.17;100899.30;2186067;79;30486;-70
2021/01/11 08:51:46;;;;;;;108.30;48.98;;;;;;;-0.22;76.10;100900.69;2200814;79;32908;-70
2021/01/11 08:54:49;;;;;;;106.47;49.08;;;;;;;-0.16;76.16;100901.14;2202886;78;28863;-71
2021/01/11 08:57:59;;;;;;;102.78;48.30;;;;;;;-0.08;76.34;100902.03;2147276;80;27813;-71
2021/01/11 09:04:36;;;;;;;104.93;49.30;;;;;;;0.14;76.41;100891.16;2252400;77;30067;-68
2021/01/11 09:07:39;;;;;;;109.52;52.62;;;;;;;0.17;76.47;100893.37;2167708;81;27654;-70
2021/01/11 09:10:44;;;;;;;101.75;48.70;;;;;;;0.24;76.30;100891.17;2149481;81;28819;-70
2021/01/11 09:13:46;;;;;;;132.27;65.00;;;;;;;0.30;76.23;100899.11;2158533;80;30956;-70
2021/01/11 09:16:52;;;;;;;97.33;46.90;;;;;;;0.37;76.37;100896.91;2187403;80;33103;-69
2021/01/11 09:19:57;;;;;;;104.23;51.10;;;;;;;0.43;76.32;100899.98;2186511;80;28306;-69
2021/01/11 09:22:59;;;;;;;125.90;60.12;;;;;;;0.50;76.23;100900.45;2187505;80;27571;-70
2021/01/11 09:26:02;;;;;;;144.28;74.42;;;;;;;0.55;76.07;100898.72;2158748;80;28930;-70
2021/01/11 09:29:06;;;;;;;110.20;56.18;;;;;;;0.58;76.06;100890.78;2177629;80;31684;-71
2021/01/11 09:32:09;;;;;;;105.87;52.53;;;;;;;0.61;75.99;100887.29;2149848;80;34265;-69
2021/01/11 09:35:15;;;;;;;101.02;49.90;;;;;;;0.64;75.96;100892.99;2136936;82;29839;-62
2021/01/11 09:38:18;;;;;;;146.40;63.90;;;;;;;0.68;76.05;100888.17;2087619;82;27736;-62
2021/01/11 09:41:20;;;;;;;144.45;64.07;;;;;;;0.73;76.03;100895.20;2112451;82;29684;-63
2021/01/11 09:44:23;;;;;;;122.07;54.35;;;;;;;0.78;76.07;100889.92;2112542;82;32008;-63
2021/01/11 09:47:26;;;;;;;179.00;68.75;;;;;;;0.85;76.06;100884.20;2112815;82;34077;-63
2021/01/11 09:50:30;;;;;;;91.87;42.75;;;;;;;0.88;75.83;100881.57;2118842;81;28870;-63
2021/01/11 09:53:32;;;;;;;88.45;40.55;;;;;;;0.91;75.80;100878.94;2112145;81;27694;-67
2021/01/11 09:56:36;;;;;;;123.62;47.93;;;;;;;0.94;75.67;100886.86;2175833;80;29687;-61
2021/01/11 09:59:40;;;;;;;100.75;48.05;;;;;;;1.00;75.61;100882.02;2192598;80;31184;-65
2021/01/11 10:02:50;;;;;;;93.47;39.60;;;;;;;1.06;75.69;100880.70;2123340;80;33150;-64
2021/01/11 10:05:57;;;;;;;103.90;48.70;;;;;;;1.12;75.40;100872.75;2209359;80;28856;-63
2021/01/11 10:08:59;;;;;;;168.07;64.15;;;;;;;1.17;75.44;100871.42;2187217;80;27718;-62
2021/01/11 10:12:04;;;;;;;150.03;53.35;;;;;;;1.19;75.22;100870.56;2187099;80;28887;-62
2021/01/11 10:15:08;;;;;;;116.70;41.20;;;;;;;1.25;75.03;100870.98;2177146;80;31273;-63
2021/01/11 10:18:11;;;;;;;116.97;48.87;;;;;;;1.25;74.94;100869.66;2127180;80;33117;-63
2021/01/11 10:21:14;;;;;;;82.50;37.05;;;;;;;1.29;74.95;100862.61;2156648;80;29727;-63
2021/01/11 10:24:19;;;;;;;64.67;31.68;;;;;;;1.32;74.92;100867.46;2143496;81;27633;-64
2021/01/11 10:27:21;;;;;;;133.90;65.80;;;;;;;1.35;74.78;100862.61;2149239;81;28829;-63
2021/01/11 10:30:24;;;;;;;65.60;32.65;;;;;;;1.38;74.63;100866.56;2120831;81;31927;-63
2021/01/11 10:33:27;;;;;;;76.05;35.17;;;;;;;1.41;74.39;100859.06;2125017;81;33112;-64
2021/01/11 10:36:39;;;;;;;90.15;42.00;;;;;;;1.43;74.49;100857.30;2104529;81;28855;-63
2021/01/11 10:39:41;;;;;;;64.47;31.45;;;;;;;1.48;74.27;100856.86;2145942;81;27734;-63
2021/01/11 10:42:47;;;;;;;78.25;35.90;;;;;;;1.53;73.95;100858.16;2125398;78;29592;-63
2021/01/11 10:45:48;;;;;;;64.87;31.82;;;;;;;1.56;73.82;100850.23;2205011;80;31258;-63
2021/01/11 10:48:51;;;;;;;66.02;32.20;;;;;;;1.62;74.06;100842.27;2184783;80;32939;-63
2021/01/11 10:51:55;;;;;;;57.00;27.15;;;;;;;1.68;74.07;100840.93;2161395;80;29909;-64
2021/01/11 10:54:57;;;;;;;82.27;34.78;;;;;;;1.70;73.25;100835.62;2161522;80;27635;-64
2021/01/11 10:58:00;;;;;;;84.03;35.90;;;;;;;1.69;73.74;100830.80;2158500;80;29607;-64
2021/01/11 11:01:07;;;;;;;56.23;28.12;;;;;;;1.72;73.47;100830.80;2160833;80;31325;-63
2021/01/11 11:04:31;;;;;;;52.62;27.20;;;;;;;1.73;73.27;100818.45;2172881;81;33872;-63
2021/01/11 11:07:36;;;;;;;56.07;27.13;;;;;;;1.72;73.21;100818.91;2132805;83;29805;-63
2021/01/11 11:10:38;;;;;;;65.80;31.13;;;;;;;1.73;73.01;100817.13;2076396;83;27761;-63
2021/01/11 11:13:43;;;;;;;49.03;24.25;;;;;;;1.74;73.14;100810.51;2025398;84;30270;-63
2021/01/11 11:16:56;;;;;;;60.07;28.33;;;;;;;1.83;73.03;100805.63;2195846;79;28017;-63
2021/01/11 11:19:59;;;;;;;55.58;27.13;;;;;;;1.79;72.79;100799.48;2098332;81;27699;-63
2021/01/11 11:23:01;;;;;;;46.68;22.85;;;;;;;1.83;72.61;100795.05;2175305;81;29704;-63
2021/01/11 11:26:06;;;;;;;46.77;22.42;;;;;;;1.85;72.33;100797.70;2081756;84;30968;-62
2021/01/11 11:29:09;;;;;;;43.75;22.15;;;;;;;1.86;72.12;100796.37;2027072;85;33888;-63
2021/01/11 11:32:12;;;;;;;45.08;23.07;;;;;;;1.87;72.04;100793.30;2026470;85;28572;-63
2021/01/11 11:35:19;;;;;;;40.55;21.68;;;;;;;1.90;72.15;100789.33;2072197;83;27679;-63
2021/01/11 11:38:22;;;;;;;46.95;20.72;;;;;;;1.93;71.96;100779.60;2026256;85;28627;-63
2021/01/11 11:41:26;;;;;;;49.60;21.23;;;;;;;1.97;71.90;100773.84;2117737;81;31168;-62
2021/01/11 11:44:28;;;;;;;46.98;24.07;;;;;;;2.00;71.51;100776.91;2105881;81;33851;-63
2021/01/11 11:47:38;;;;;;;51.90;21.77;;;;;;;2.03;71.35;100772.92;2066810;84;29356;-63
2021/01/11 11:50:41;;;;;;;82.22;30.62;;;;;;;2.03;71.27;100769.86;2107480;81;27842;-63
2021/01/11 11:53:44;;;;;;;54.00;24.55;;;;;;;2.06;70.85;100763.66;2110276;82;28833;-64
2021/01/11 11:56:47;;;;;;;40.60;21.87;;;;;;;2.09;71.05;100759.22;2058640;83;31645;-63
2021/01/11 11:59:51;;;;;;;46.13;24.30;;;;;;;2.13;70.93;100761.42;2090340;84;34257;-63
2021/01/11 12:02:53;;;;;;;51.95;27.27;;;;;;;2.12;70.71;100756.56;2045664;84;28875;-63
2021/01/11 12:05:56;;;;;;;43.10;22.93;;;;;;;2.15;71.06;100758.33;2067374;84;27734;-62
2021/01/11 12:08:58;;;;;;;36.30;20.48;;;;;;;2.18;70.75;100756.95;2095827;82;29262;-63
2021/01/11 12:12:01;;;;;;;59.23;28.38;;;;;;;2.20;70.61;100753.00;2080794;82;31023;-62
2021/01/11 12:15:06;;;;;;;45.45;24.37;;;;;;;2.21;70.32;100754.30;2019975;85;32929;-62
2021/01/11 12:18:09;;;;;;;42.85;22.45;;;;;;;2.23;70.07;100752.52;1995404;84;28454;-62
2021/01/11 12:21:11;;;;;;;36.55;19.70;;;;;;;2.24;70.37;100750.31;2050650;84;27714;-62
2021/01/11 12:24:14;;;;;;;36.17;19.50;;;;;;;2.25;70.24;100745.89;2025145;85;28958;-62
2021/01/11 12:27:17;;;;;;;45.43;21.25;;;;;;;2.25;70.09;100742.81;2056124;84;32546;-63
2021/01/11 12:30:21;;;;;;;37.65;18.95;;;;;;;2.26;70.00;100743.67;2053938;84;33195;-63
2021/01/11 12:33:24;;;;;;;38.13;18.73;;;;;;;2.27;69.64;100741.47;2044488;84;29623;-63
2021/01/11 12:36:31;;;;;;;86.22;44.40;;;;;;;2.27;69.80;100737.08;2089683;84;27971;-62
2021/01/11 12:39:36;;;;;;;120.67;57.78;;;;;;;2.28;69.53;100728.26;2090253;84;28884;-62
2021/01/11 12:42:38;;;;;;;98.60;48.33;;;;;;;2.28;68.96;100726.94;2064277;84;30958;-63
2021/01/11 12:45:42;;;;;;;82.08;39.45;;;;;;;2.27;69.36;100729.14;2004259;84;33125;-63
2021/01/11 12:48:46;;;;;;;113.95;56.68;;;;;;;2.31;69.40;100729.98;2002976;85;29613;-63
2021/01/11 12:51:48;;;;;;;84.25;42.00;;;;;;;2.34;69.48;100726.42;2056076;85;27776;-62
2021/01/11 12:54:50;;;;;;;62.35;33.60;;;;;;;2.34;69.32;100722.46;2003494;85;29935;-63
2021/01/11 12:57:53;;;;;;;76.15;42.40;;;;;;;2.34;69.00;100723.78;2063724;84;31161;-63
2021/01/11 13:00:59;;;;;;;62.50;34.55;;;;;;;2.33;69.01;100728.64;2057663;84;33876;-63
2021/01/11 13:04:03;;;;;;;57.08;30.90;;;;;;;2.31;68.91;100723.38;2035406;84;29504;-63
2021/01/11 13:07:07;;;;;;;57.90;30.90;;;;;;;2.31;68.94;100722.52;2058260;84;27849;-62
2021/01/11 13:10:14;;;;;;;47.53;22.37;;;;;;;2.29;69.16;100723.83;2025737;85;29591;-63
2021/01/11 13:13:16;;;;;;;86.20;41.20;;;;;;;2.30;69.27;100715.01;2028217;84;32166;-62
2021/01/11 13:16:31;;;;;;;58.90;30.27;;;;;;;2.31;69.25;100723.38;2060705;83;34461;-62
2021/01/11 13:19:36;;;;;;;37.45;20.55;;;;;;;2.34;69.31;100711.88;2073865;83;34793;-62
2021/01/11 13:22:39;;;;;;;59.27;31.02;;;;;;;2.36;69.19;100712.75;2052475;83;27717;-62
2021/01/11 13:25:42;;;;;;;46.77;26.12;;;;;;;2.35;68.70;100707.92;2096860;83;28839;-62
2021/01/11 13:28:45;;;;;;;34.83;17.02;;;;;;;2.34;68.32;100709.23;2079569;82;31625;-62
2021/01/11 13:31:49;;;;;;;27.27;16.12;;;;;;;2.31;67.86;100700.91;2135405;81;33104;-62
2021/01/11 13:34:52;;;;;;;41.68;19.12;;;;;;;2.28;67.68;100697.86;2107078;83;29629;-62
2021/01/11 13:37:54;;;;;;;47.40;22.48;;;;;;;2.28;67.67;100701.81;2088559;82;27861;-63
2021/01/11 13:40:57;;;;;;;37.85;20.20;;;;;;;2.29;68.00;100688.14;2137041;82;29375;-63
2021/01/11 13:44:00;;;;;;;50.95;20.88;;;;;;;2.32;67.77;100692.55;2130986;80;31132;-62
2021/01/11 13:47:04;;;;;;;34.38;17.65;;;;;;;2.31;67.72;100683.72;2109154;82;33130;-62
2021/01/11 13:50:08;;;;;;;29.30;15.33;;;;;;;2.33;67.80;100684.59;2061255;83;29327;-63
2021/01/11 13:53:11;;;;;;;37.08;21.90;;;;;;;2.34;67.65;100682.38;2083836;83;27671;-62
2021/01/11 13:56:26;;;;;;;35.65;19.30;;;;;;;2.36;67.40;100684.99;2059812;83;28725;-62
2021/01/11 13:59:29;;;;;;;35.92;17.95;;;;;;;2.36;67.50;100682.34;2060854;83;30969;-63
2021/01/11 14:02:35;;;;;;;37.85;19.00;;;;;;;2.37;67.66;100668.23;2082537;83;32301;-64
2021/01/11 14:05:38;;;;;;;28.92;15.18;;;;;;;2.36;67.67;100668.70;2082850;83;28565;-63
2021/01/11 14:08:42;;;;;;;29.98;15.80;;;;;;;2.37;67.53;100676.17;2061508;83;27980;-63
2021/01/11 14:11:47;;;;;;;33.30;15.95;;;;;;;2.36;67.23;100672.66;2063757;83;29812;-62